sensor_id;sensor_type;location;lat;lon;timestamp;pressure;altitude;pressure_sealevel;temperature;humidity
10948;BME280;5526;42.070;24.752;2022-08-19T00:00:10;98440.91;;;26.13;48.22
10948;BME280;5526;42.070;24.752;2022-08-19T00:02:40;98450.44;;;26.04;48.99
10948;BME280;5526;42.070;24.752;2022-08-19T00:05:08;98434.47;;;25.92;49.86
10948;BME280;5526;42.070;24.752;2022-08-19T00:07:37;98437.50;;;25.87;50.50
10948;BME280;5526;42.070;24.752;2022-08-19T00:10:05;98443.59;;;25.80;52.06
10948;BME280;5526;42.070;24.752;2022-08-19T00:12:33;98446.59;;;25.75;52.49
10948;BME280;5526;42.070;24.752;2022-08-19T00:15:01;98432.31;;;25.71;52.57
10948;BME280;5526;42.070;24.752;2022-08-19T00:17:27;98434.94;;;25.68;53.32
10948;BME280;5526;42.070;24.752;2022-08-19T00:19:54;98432.22;;;25.64;53.44
10948;BME280;5526;42.070;24.752;2022-08-19T00:22:21;98439.56;;;25.67;53.25
10948;BME280;5526;42.070;24.752;2022-08-19T00:24:50;98433.44;;;25.70;52.65
10948;BME280;5526;42.070;24.752;2022-08-19T00:27:16;98433.38;;;25.67;52.99
10948;BME280;5526;42.070;24.752;2022-08-19T00:29:43;98433.34;;;25.63;53.92
10948;BME280;5526;42.070;24.752;2022-08-19T00:32:10;98427.13;;;25.59;53.90
10948;BME280;5526;42.070;24.752;2022-08-19T00:34:37;98424.38;;;25.56;54.01
10948;BME280;5526;42.070;24.752;2022-08-19T00:37:04;98418.84;;;25.45;54.55
10948;BME280;5526;42.070;24.752;2022-08-19T00:39:31;98412.28;;;25.43;54.63
10948;BME280;5526;42.070;24.752;2022-08-19T00:41:59;98409.59;;;25.43;54.40
10948;BME280;5526;42.070;24.752;2022-08-19T00:44:28;98409.88;;;25.38;54.04
10948;BME280;5526;42.070;24.752;2022-08-19T00:46:57;98401.41;;;25.36;53.93
10948;BME280;5526;42.070;24.752;2022-08-19T00:49:29;98407.50;;;25.33;53.80
10948;BME280;5526;42.070;24.752;2022-08-19T00:52:01;98403.31;;;25.35;53.87
10948;BME280;5526;42.070;24.752;2022-08-19T00:54:29;98401.75;;;25.34;54.78
10948;BME280;5526;42.070;24.752;2022-08-19T00:57:02;98397.91;;;25.35;55.78
10948;BME280;5526;42.070;24.752;2022-08-19T00:59:33;98398.59;;;25.29;55.50
10948;BME280;5526;42.070;24.752;2022-08-19T01:02:01;98391.97;;;25.23;55.69
10948;BME280;5526;42.070;24.752;2022-08-19T01:04:28;98380.66;;;25.14;55.72
10948;BME280;5526;42.070;24.752;2022-08-19T01:06:55;98376.09;;;25.18;55.49
10948;BME280;5526;42.070;24.752;2022-08-19T01:09:23;98390.38;;;25.22;55.05
10948;BME280;5526;42.070;24.752;2022-08-19T01:11:50;98388.91;;;25.24;54.69
10948;BME280;5526;42.070;24.752;2022-08-19T01:14:19;98381.59;;;25.25;55.25
10948;BME280;5526;42.070;24.752;2022-08-19T01:16:46;98379.09;;;25.13;55.58
10948;BME280;5526;42.070;24.752;2022-08-19T01:19:18;98374.97;;;25.19;55.90
10948;BME280;5526;42.070;24.752;2022-08-19T01:21:53;98368.75;;;25.15;56.05
10948;BME280;5526;42.070;24.752;2022-08-19T01:24:23;98384.53;;;25.16;55.48
10948;BME280;5526;42.070;24.752;2022-08-19T01:26:50;98381.09;;;25.16;55.31
10948;BME280;5526;42.070;24.752;2022-08-19T01:29:17;98375.63;;;25.12;55.49
10948;BME280;5526;42.070;24.752;2022-08-19T01:31:44;98381.81;;;25.13;55.06
10948;BME280;5526;42.070;24.752;2022-08-19T01:34:11;98380.25;;;25.12;55.80
10948;BME280;5526;42.070;24.752;2022-08-19T01:36:40;98390.66;;;25.13;55.39
10948;BME280;5526;42.070;24.752;2022-08-19T01:39:11;98392.19;;;25.11;55.12
10948;BME280;5526;42.070;24.752;2022-08-19T01:41:40;98388.34;;;25.12;55.65
10948;BME280;5526;42.070;24.752;2022-08-19T01:44:08;98398.69;;;25.10;55.78
10948;BME280;5526;42.070;24.752;2022-08-19T01:46:35;98404.81;;;25.07;56.25
10948;BME280;5526;42.070;24.752;2022-08-19T01:49:05;98417.44;;;25.03;56.30
10948;BME280;5526;42.070;24.752;2022-08-19T01:51:32;98421.22;;;24.98;56.52
10948;BME280;5526;42.070;24.752;2022-08-19T01:53:59;98422.28;;;24.94;56.38
10948;BME280;5526;42.070;24.752;2022-08-19T01:56:26;98436.88;;;24.93;56.77
10948;BME280;5526;42.070;24.752;2022-08-19T01:58:57;98438.31;;;24.87;57.93
10948;BME280;5526;42.070;24.752;2022-08-19T02:01:24;98438.97;;;24.80;57.18
10948;BME280;5526;42.070;24.752;2022-08-19T02:03:51;98438.84;;;24.73;57.24
10948;BME280;5526;42.070;24.752;2022-08-19T02:06:20;98450.00;;;24.72;56.90
10948;BME280;5526;42.070;24.752;2022-08-19T02:08:47;98451.91;;;24.71;57.22
10948;BME280;5526;42.070;24.752;2022-08-19T02:11:19;98447.25;;;24.68;57.68
10948;BME280;5526;42.070;24.752;2022-08-19T02:13:47;98446.41;;;24.64;58.04
10948;BME280;5526;42.070;24.752;2022-08-19T02:16:16;98450.59;;;24.62;58.23
10948;BME280;5526;42.070;24.752;2022-08-19T02:18:44;98451.69;;;24.61;58.41
10948;BME280;5526;42.070;24.752;2022-08-19T02:21:11;98463.16;;;24.58;59.06
10948;BME280;5526;42.070;24.752;2022-08-19T02:23:38;98466.16;;;24.52;59.74
10948;BME280;5526;42.070;24.752;2022-08-19T02:26:05;98461.50;;;24.49;61.32
10948;BME280;5526;42.070;24.752;2022-08-19T02:28:32;98469.88;;;24.44;60.92
10948;BME280;5526;42.070;24.752;2022-08-19T02:31:00;98460.22;;;24.43;60.32
10948;BME280;5526;42.070;24.752;2022-08-19T02:33:29;98458.25;;;24.40;60.41
10948;BME280;5526;42.070;24.752;2022-08-19T02:35:56;98447.38;;;24.33;62.39
10948;BME280;5526;42.070;24.752;2022-08-19T02:38:23;98469.72;;;24.37;62.59
10948;BME280;5526;42.070;24.752;2022-08-19T02:40:56;98472.78;;;24.36;61.68
10948;BME280;5526;42.070;24.752;2022-08-19T02:43:24;98469.22;;;24.32;61.79
10948;BME280;5526;42.070;24.752;2022-08-19T02:45:51;98473.06;;;24.31;61.05
10948;BME280;5526;42.070;24.752;2022-08-19T02:48:19;98473.41;;;24.29;62.02
10948;BME280;5526;42.070;24.752;2022-08-19T02:50:49;98478.84;;;24.33;60.91
10948;BME280;5526;42.070;24.752;2022-08-19T02:53:22;98486.50;;;24.31;61.54
10948;BME280;5526;42.070;24.752;2022-08-19T02:55:50;98476.47;;;24.28;62.09
10948;BME280;5526;42.070;24.752;2022-08-19T02:58:18;98472.56;;;24.25;62.03
10948;BME280;5526;42.070;24.752;2022-08-19T03:00:47;98481.78;;;24.24;61.86
10948;BME280;5526;42.070;24.752;2022-08-19T03:03:14;98478.31;;;24.24;62.09
10948;BME280;5526;42.070;24.752;2022-08-19T03:05:42;98487.06;;;24.21;61.35
10948;BME280;5526;42.070;24.752;2022-08-19T03:08:11;98484.03;;;24.22;60.55
10948;BME280;5526;42.070;24.752;2022-08-19T03:10:42;98482.47;;;24.21;60.04
10948;BME280;5526;42.070;24.752;2022-08-19T03:13:12;98486.66;;;24.19;59.94
10948;BME280;5526;42.070;24.752;2022-08-19T03:15:41;98484.72;;;24.19;59.58
10948;BME280;5526;42.070;24.752;2022-08-19T03:18:09;98487.41;;;24.19;59.22
10948;BME280;5526;42.070;24.752;2022-08-19T03:20:41;98490.13;;;24.19;59.83
10948;BME280;5526;42.070;24.752;2022-08-19T03:23:11;98497.75;;;24.17;59.80
10948;BME280;5526;42.070;24.752;2022-08-19T03:25:40;98495.78;;;24.14;59.92
10948;BME280;5526;42.070;24.752;2022-08-19T03:28:09;98496.47;;;24.11;60.03
10948;BME280;5526;42.070;24.752;2022-08-19T03:30:37;98506.81;;;24.09;60.13
10948;BME280;5526;42.070;24.752;2022-08-19T03:33:06;98497.63;;;24.10;60.01
10948;BME280;5526;42.070;24.752;2022-08-19T03:35:33;98496.81;;;24.10;60.09
10948;BME280;5526;42.070;24.752;2022-08-19T03:38:02;98509.00;;;24.04;60.90
10948;BME280;5526;42.070;24.752;2022-08-19T03:40:30;98508.22;;;24.03;61.14
10948;BME280;5526;42.070;24.752;2022-08-19T03:42:57;98505.97;;;24.05;61.87
10948;BME280;5526;42.070;24.752;2022-08-19T03:45:24;98512.41;;;24.01;61.97
10948;BME280;5526;42.070;24.752;2022-08-19T03:47:51;98512.91;;;24.06;62.04
10948;BME280;5526;42.070;24.752;2022-08-19T03:50:18;98505.97;;;24.05;62.34
10948;BME280;5526;42.070;24.752;2022-08-19T03:52:48;98517.94;;;24.08;61.93
10948;BME280;5526;42.070;24.752;2022-08-19T03:55:15;98517.59;;;24.09;61.14
10948;BME280;5526;42.070;24.752;2022-08-19T03:57:44;98506.97;;;24.16;61.30
10948;BME280;5526;42.070;24.752;2022-08-19T04:00:14;98508.59;;;24.21;60.97
10948;BME280;5526;42.070;24.752;2022-08-19T04:02:41;98512.63;;;24.30;60.52
10948;BME280;5526;42.070;24.752;2022-08-19T04:05:09;98515.44;;;24.37;60.37
10948;BME280;5526;42.070;24.752;2022-08-19T04:07:36;98522.22;;;24.50;59.88
10948;BME280;5526;42.070;24.752;2022-08-19T04:10:04;98515.09;;;24.58;59.58
10948;BME280;5526;42.070;24.752;2022-08-19T04:12:31;98513.47;;;24.73;58.94
10948;BME280;5526;42.070;24.752;2022-08-19T04:15:00;98511.75;;;24.84;58.93
10948;BME280;5526;42.070;24.752;2022-08-19T04:17:27;98516.16;;;24.95;58.72
10948;BME280;5526;42.070;24.752;2022-08-19T04:19:54;98514.75;;;25.01;58.32
10948;BME280;5526;42.070;24.752;2022-08-19T04:22:21;98517.66;;;25.15;58.06
10948;BME280;5526;42.070;24.752;2022-08-19T04:24:48;98521.25;;;25.23;57.86
10948;BME280;5526;42.070;24.752;2022-08-19T04:27:15;98519.75;;;25.25;56.87
10948;BME280;5526;42.070;24.752;2022-08-19T04:29:42;98518.31;;;25.31;56.78
10948;BME280;5526;42.070;24.752;2022-08-19T04:32:10;98519.44;;;25.53;56.02
10948;BME280;5526;42.070;24.752;2022-08-19T04:34:41;98526.94;;;25.66;56.08
10948;BME280;5526;42.070;24.752;2022-08-19T04:37:08;98522.63;;;25.88;55.35
10948;BME280;5526;42.070;24.752;2022-08-19T04:39:37;98524.84;;;26.05;55.68
10948;BME280;5526;42.070;24.752;2022-08-19T04:42:22;98530.03;;;26.20;57.34
10948;BME280;5526;42.070;24.752;2022-08-19T04:45:09;98524.84;;;26.38;56.22
10948;BME280;5526;42.070;24.752;2022-08-19T04:47:38;98524.69;;;26.57;55.32
10948;BME280;5526;42.070;24.752;2022-08-19T04:50:06;98519.28;;;26.57;54.37
10948;BME280;5526;42.070;24.752;2022-08-19T04:52:36;98520.97;;;26.68;54.46
10948;BME280;5526;42.070;24.752;2022-08-19T04:55:05;98528.06;;;26.83;54.57
10948;BME280;5526;42.070;24.752;2022-08-19T04:57:33;98533.38;;;26.76;54.07
10948;BME280;5526;42.070;24.752;2022-08-19T05:00:01;98536.75;;;27.03;53.82
10948;BME280;5526;42.070;24.752;2022-08-19T05:02:28;98526.97;;;27.28;52.67
10948;BME280;5526;42.070;24.752;2022-08-19T05:04:58;98530.09;;;27.33;51.00
10948;BME280;5526;42.070;24.752;2022-08-19T05:07:26;98531.69;;;27.41;50.37
10948;BME280;5526;42.070;24.752;2022-08-19T05:09:53;98541.06;;;27.54;50.68
10948;BME280;5526;42.070;24.752;2022-08-19T05:12:20;98534.22;;;27.67;49.17
10948;BME280;5526;42.070;24.752;2022-08-19T05:14:47;98541.34;;;27.93;47.74
10948;BME280;5526;42.070;24.752;2022-08-19T05:17:15;98539.34;;;27.83;48.17
10948;BME280;5526;42.070;24.752;2022-08-19T05:19:42;98541.09;;;27.58;49.17
10948;BME280;5526;42.070;24.752;2022-08-19T05:22:27;98540.69;;;27.56;49.96
10948;BME280;5526;42.070;24.752;2022-08-19T05:25:06;98536.22;;;27.81;48.70
10948;BME280;5526;42.070;24.752;2022-08-19T05:27:33;98541.09;;;27.58;49.18
10948;BME280;5526;42.070;24.752;2022-08-19T05:30:01;98546.88;;;27.60;48.54
10948;BME280;5526;42.070;24.752;2022-08-19T05:32:28;98538.97;;;27.84;47.86
10948;BME280;5526;42.070;24.752;2022-08-19T05:34:55;98541.59;;;27.74;48.45
10948;BME280;5526;42.070;24.752;2022-08-19T05:37:22;98540.50;;;27.82;47.75
10948;BME280;5526;42.070;24.752;2022-08-19T05:39:54;98547.56;;;28.00;47.85
10948;BME280;5526;42.070;24.752;2022-08-19T05:42:21;98541.88;;;28.20;46.60
10948;BME280;5526;42.070;24.752;2022-08-19T05:44:50;98538.38;;;28.19;46.94
10948;BME280;5526;42.070;24.752;2022-08-19T05:47:18;98540.75;;;28.28;46.40
10948;BME280;5526;42.070;24.752;2022-08-19T05:49:45;98541.53;;;28.28;46.89
10948;BME280;5526;42.070;24.752;2022-08-19T05:52:14;98543.78;;;28.12;46.65
10948;BME280;5526;42.070;24.752;2022-08-19T05:54:42;98538.97;;;27.88;47.69
10948;BME280;5526;42.070;24.752;2022-08-19T05:57:14;98541.13;;;28.26;47.18
10948;BME280;5526;42.070;24.752;2022-08-19T05:59:41;98547.34;;;28.41;46.61
10948;BME280;5526;42.070;24.752;2022-08-19T06:02:11;98549.81;;;28.70;45.96
10948;BME280;5526;42.070;24.752;2022-08-19T06:04:38;98552.91;;;28.72;46.15
10948;BME280;5526;42.070;24.752;2022-08-19T06:07:08;98556.78;;;28.78;46.90
10948;BME280;5526;42.070;24.752;2022-08-19T06:09:35;98552.03;;;28.44;48.25
10948;BME280;5526;42.070;24.752;2022-08-19T06:12:03;98553.59;;;28.45;48.83
10948;BME280;5526;42.070;24.752;2022-08-19T06:14:32;98561.34;;;28.46;48.86
10948;BME280;5526;42.070;24.752;2022-08-19T06:17:01;98553.28;;;28.60;48.54
10948;BME280;5526;42.070;24.752;2022-08-19T06:19:29;98555.28;;;28.81;47.97
10948;BME280;5526;42.070;24.752;2022-08-19T06:21:58;98561.81;;;28.69;47.55
10948;BME280;5526;42.070;24.752;2022-08-19T06:24:28;98564.91;;;28.78;47.22
10948;BME280;5526;42.070;24.752;2022-08-19T06:26:56;98569.22;;;28.86;47.05
10948;BME280;5526;42.070;24.752;2022-08-19T06:29:25;98560.75;;;29.05;46.54
10948;BME280;5526;42.070;24.752;2022-08-19T06:31:56;98564.25;;;29.27;46.30
10948;BME280;5526;42.070;24.752;2022-08-19T06:34:24;98565.44;;;29.33;45.93
10948;BME280;5526;42.070;24.752;2022-08-19T06:36:53;98572.03;;;29.49;45.22
10948;BME280;5526;42.070;24.752;2022-08-19T06:39:22;98571.66;;;29.61;45.03
10948;BME280;5526;42.070;24.752;2022-08-19T06:41:55;98572.34;;;30.11;44.42
10948;BME280;5526;42.070;24.752;2022-08-19T06:44:24;98580.09;;;30.16;43.34
10948;BME280;5526;42.070;24.752;2022-08-19T06:46:54;98576.22;;;30.20;42.87
10948;BME280;5526;42.070;24.752;2022-08-19T06:49:21;98571.91;;;30.33;42.34
10948;BME280;5526;42.070;24.752;2022-08-19T06:51:49;98577.19;;;30.72;41.97
10948;BME280;5526;42.070;24.752;2022-08-19T06:54:18;98576.88;;;30.52;41.92
10948;BME280;5526;42.070;24.752;2022-08-19T06:56:45;98579.63;;;30.42;42.00
10948;BME280;5526;42.070;24.752;2022-08-19T06:59:15;98580.41;;;30.39;41.92
10948;BME280;5526;42.070;24.752;2022-08-19T07:01:44;98584.22;;;30.62;41.56
10948;BME280;5526;42.070;24.752;2022-08-19T07:04:14;98577.53;;;30.81;41.18
10948;BME280;5526;42.070;24.752;2022-08-19T07:06:42;98579.41;;;30.94;41.52
10948;BME280;5526;42.070;24.752;2022-08-19T07:09:11;98570.22;;;30.67;41.86
10948;BME280;5526;42.070;24.752;2022-08-19T07:11:43;98567.34;;;30.95;40.83
10948;BME280;5526;42.070;24.752;2022-08-19T07:14:11;98569.75;;;30.86;41.17
10948;BME280;5526;42.070;24.752;2022-08-19T07:16:39;98572.47;;;30.83;41.40
10948;BME280;5526;42.070;24.752;2022-08-19T07:19:06;98563.28;;;30.52;41.89
10948;BME280;5526;42.070;24.752;2022-08-19T07:21:35;98562.50;;;30.55;42.09
10948;BME280;5526;42.070;24.752;2022-08-19T07:24:03;98564.53;;;30.34;43.10
10948;BME280;5526;42.070;24.752;2022-08-19T07:26:33;98564.38;;;30.69;42.39
10948;BME280;5526;42.070;24.752;2022-08-19T07:29:00;98557.41;;;30.71;42.61
10948;BME280;5526;42.070;24.752;2022-08-19T07:31:28;98563.72;;;31.12;41.82
10948;BME280;5526;42.070;24.752;2022-08-19T07:33:55;98558.59;;;31.28;41.75
10948;BME280;5526;42.070;24.752;2022-08-19T07:36:24;98562.47;;;31.75;41.18
10948;BME280;5526;42.070;24.752;2022-08-19T07:39:00;98557.88;;;31.69;40.75
10948;BME280;5526;42.070;24.752;2022-08-19T07:41:29;98555.69;;;31.94;41.13
10948;BME280;5526;42.070;24.752;2022-08-19T07:43:57;98553.06;;;32.54;41.11
10948;BME280;5526;42.070;24.752;2022-08-19T07:46:30;98554.63;;;32.55;39.22
10948;BME280;5526;42.070;24.752;2022-08-19T07:48:58;98556.56;;;32.21;39.68
10948;BME280;5526;42.070;24.752;2022-08-19T07:51:26;98552.16;;;31.97;39.61
10948;BME280;5526;42.070;24.752;2022-08-19T07:53:54;98547.00;;;32.43;38.62
10948;BME280;5526;42.070;24.752;2022-08-19T07:56:23;98547.59;;;32.57;37.82
10948;BME280;5526;42.070;24.752;2022-08-19T07:58:52;98546.44;;;32.85;36.60
10948;BME280;5526;42.070;24.752;2022-08-19T08:01:21;98547.44;;;32.98;36.46
10948;BME280;5526;42.070;24.752;2022-08-19T08:03:51;98546.13;;;33.06;36.71
10948;BME280;5526;42.070;24.752;2022-08-19T08:06:36;98544.63;;;33.01;35.87
10948;BME280;5526;42.070;24.752;2022-08-19T08:09:23;98550.16;;;32.98;34.38
10948;BME280;5526;42.070;24.752;2022-08-19T08:11:54;98541.41;;;33.10;35.01
10948;BME280;5526;42.070;24.752;2022-08-19T08:14:24;98540.16;;;33.41;35.07
10948;BME280;5526;42.070;24.752;2022-08-19T08:16:52;98541.69;;;33.42;34.87
10948;BME280;5526;42.070;24.752;2022-08-19T08:19:22;98540.25;;;33.57;34.81
10948;BME280;5526;42.070;24.752;2022-08-19T08:21:50;98540.31;;;33.53;34.24
10948;BME280;5526;42.070;24.752;2022-08-19T08:24:18;98544.88;;;33.83;33.61
10948;BME280;5526;42.070;24.752;2022-08-19T08:26:45;98533.00;;;33.93;33.74
10948;BME280;5526;42.070;24.752;2022-08-19T08:29:14;98533.91;;;33.63;33.97
10948;BME280;5526;42.070;24.752;2022-08-19T08:31:43;98536.56;;;33.67;33.60
10948;BME280;5526;42.070;24.752;2022-08-19T08:34:11;98538.44;;;33.50;33.47
10948;BME280;5526;42.070;24.752;2022-08-19T08:36:40;98530.47;;;33.59;33.06
10948;BME280;5526;42.070;24.752;2022-08-19T08:39:08;98536.44;;;33.74;33.42
10948;BME280;5526;42.070;24.752;2022-08-19T08:41:40;98531.56;;;34.04;32.91
10948;BME280;5526;42.070;24.752;2022-08-19T08:44:23;98538.16;;;33.87;32.93
10948;BME280;5526;42.070;24.752;2022-08-19T08:46:56;98530.38;;;34.25;32.15
10948;BME280;5526;42.070;24.752;2022-08-19T08:49:31;98526.63;;;34.58;32.33
10948;BME280;5526;42.070;24.752;2022-08-19T08:52:04;98525.84;;;34.38;31.55
10948;BME280;5526;42.070;24.752;2022-08-19T08:54:36;98516.78;;;34.60;31.17
10948;BME280;5526;42.070;24.752;2022-08-19T08:57:07;98524.22;;;34.76;31.11
10948;BME280;5526;42.070;24.752;2022-08-19T08:59:40;98509.59;;;34.86;31.00
10948;BME280;5526;42.070;24.752;2022-08-19T09:02:09;98518.00;;;34.75;31.32
10948;BME280;5526;42.070;24.752;2022-08-19T09:04:36;98518.81;;;34.92;30.41
10948;BME280;5526;42.070;24.752;2022-08-19T09:07:17;98513.34;;;35.24;30.67
10948;BME280;5526;42.070;24.752;2022-08-19T09:09:50;98504.94;;;35.63;30.04
10948;BME280;5526;42.070;24.752;2022-08-19T09:12:24;98504.41;;;35.84;30.14
10948;BME280;5526;42.070;24.752;2022-08-19T09:14:58;98496.88;;;36.29;28.75
10948;BME280;5526;42.070;24.752;2022-08-19T09:17:28;98500.00;;;36.15;29.11
10948;BME280;5526;42.070;24.752;2022-08-19T09:20:02;98487.75;;;35.63;29.45
10948;BME280;5526;42.070;24.752;2022-08-19T09:22:30;98491.00;;;36.15;28.96
10948;BME280;5526;42.070;24.752;2022-08-19T09:24:57;98491.69;;;35.78;28.87
10948;BME280;5526;42.070;24.752;2022-08-19T09:27:25;98496.72;;;35.79;28.83
10948;BME280;5526;42.070;24.752;2022-08-19T09:29:53;98487.59;;;36.11;28.19
10948;BME280;5526;42.070;24.752;2022-08-19T09:32:22;98485.28;;;36.09;29.19
10948;BME280;5526;42.070;24.752;2022-08-19T09:34:49;98498.44;;;36.55;27.57
10948;BME280;5526;42.070;24.752;2022-08-19T09:37:20;98482.41;;;36.29;27.76
10948;BME280;5526;42.070;24.752;2022-08-19T09:39:47;98481.47;;;36.19;27.67
10948;BME280;5526;42.070;24.752;2022-08-19T09:42:14;98488.13;;;36.34;27.22
10948;BME280;5526;42.070;24.752;2022-08-19T09:44:42;98494.75;;;36.74;26.77
10948;BME280;5526;42.070;24.752;2022-08-19T09:47:10;98480.22;;;36.49;27.19
10948;BME280;5526;42.070;24.752;2022-08-19T09:49:40;98479.22;;;36.30;27.91
10948;BME280;5526;42.070;24.752;2022-08-19T09:52:08;98472.44;;;36.97;26.91
10948;BME280;5526;42.070;24.752;2022-08-19T09:54:35;98478.47;;;37.17;26.40
10948;BME280;5526;42.070;24.752;2022-08-19T09:57:03;98477.69;;;37.17;26.42
10948;BME280;5526;42.070;24.752;2022-08-19T09:59:30;98471.22;;;36.98;26.58
10948;BME280;5526;42.070;24.752;2022-08-19T10:01:57;98482.34;;;36.82;26.71
10948;BME280;5526;42.070;24.752;2022-08-19T10:04:24;98473.09;;;36.89;26.83
10948;BME280;5526;42.070;24.752;2022-08-19T10:07:14;98471.53;;;37.25;27.65
10948;BME280;5526;42.070;24.752;2022-08-19T10:09:42;98469.16;;;37.15;26.37
10948;BME280;5526;42.070;24.752;2022-08-19T10:12:09;98461.81;;;37.46;26.13
10948;BME280;5526;42.070;24.752;2022-08-19T10:14:37;98461.59;;;37.40;26.07
10948;BME280;5526;42.070;24.752;2022-08-19T10:17:04;98457.72;;;37.50;25.79
10948;BME280;5526;42.070;24.752;2022-08-19T10:19:31;98451.16;;;37.35;25.73
10948;BME280;5526;42.070;24.752;2022-08-19T10:22:03;98454.31;;;37.80;25.22
10948;BME280;5526;42.070;24.752;2022-08-19T10:24:32;98444.28;;;38.08;24.72
10948;BME280;5526;42.070;24.752;2022-08-19T10:27:00;98445.81;;;37.87;24.28
10948;BME280;5526;42.070;24.752;2022-08-19T10:29:29;98432.69;;;37.48;25.48
10948;BME280;5526;42.070;24.752;2022-08-19T10:31:57;98443.44;;;37.55;25.40
10948;BME280;5526;42.070;24.752;2022-08-19T10:34:26;98417.63;;;37.74;25.04
10948;BME280;5526;42.070;24.752;2022-08-19T10:36:54;98435.13;;;37.89;25.09
10948;BME280;5526;42.070;24.752;2022-08-19T10:39:21;98435.06;;;37.80;25.32
10948;BME280;5526;42.070;24.752;2022-08-19T10:41:50;98437.75;;;38.14;24.79
10948;BME280;5526;42.070;24.752;2022-08-19T10:44:17;98445.09;;;37.74;25.23
10948;BME280;5526;42.070;24.752;2022-08-19T10:46:45;98432.44;;;37.98;24.32
10948;BME280;5526;42.070;24.752;2022-08-19T10:49:13;98432.56;;;38.47;24.60
10948;BME280;5526;42.070;24.752;2022-08-19T10:51:40;98428.53;;;38.79;23.62
10948;BME280;5526;42.070;24.752;2022-08-19T10:54:25;98435.59;;;38.40;23.18
10948;BME280;5526;42.070;24.752;2022-08-19T10:57:15;98433.84;;;38.55;23.05
10948;BME280;5526;42.070;24.752;2022-08-19T10:59:41;98433.25;;;38.30;22.67
10948;BME280;5526;42.070;24.752;2022-08-19T11:02:09;98424.56;;;38.09;23.32
10948;BME280;5526;42.070;24.752;2022-08-19T11:04:38;98428.94;;;38.28;22.96
10948;BME280;5526;42.070;24.752;2022-08-19T11:07:06;98422.66;;;37.97;22.35
10948;BME280;5526;42.070;24.752;2022-08-19T11:09:37;98426.94;;;38.51;21.90
10948;BME280;5526;42.070;24.752;2022-08-19T11:12:05;98423.47;;;38.59;22.54
10948;BME280;5526;42.070;24.752;2022-08-19T11:14:34;98419.34;;;38.64;22.74
10948;BME280;5526;42.070;24.752;2022-08-19T11:17:02;98414.16;;;38.75;22.57
10948;BME280;5526;42.070;24.752;2022-08-19T11:19:29;98404.41;;;38.83;22.86
10948;BME280;5526;42.070;24.752;2022-08-19T11:21:56;98407.78;;;38.87;22.26
10948;BME280;5526;42.070;24.752;2022-08-19T11:24:26;98403.50;;;38.86;22.99
10948;BME280;5526;42.070;24.752;2022-08-19T11:26:59;98404.91;;;39.08;22.32
10948;BME280;5526;42.070;24.752;2022-08-19T11:29:28;98397.28;;;39.30;22.38
10948;BME280;5526;42.070;24.752;2022-08-19T11:31:56;98400.22;;;39.45;21.82
10948;BME280;5526;42.070;24.752;2022-08-19T11:34:26;98400.66;;;39.43;22.33
10948;BME280;5526;42.070;24.752;2022-08-19T11:36:54;98399.56;;;39.05;22.62
10948;BME280;5526;42.070;24.752;2022-08-19T11:39:24;98402.94;;;39.27;22.58
10948;BME280;5526;42.070;24.752;2022-08-19T11:41:51;98397.91;;;39.61;22.07
10948;BME280;5526;42.070;24.752;2022-08-19T11:44:19;98380.88;;;39.72;21.54
10948;BME280;5526;42.070;24.752;2022-08-19T11:46:46;98385.19;;;39.19;21.74
10948;BME280;5526;42.070;24.752;2022-08-19T11:49:16;98381.22;;;39.20;21.82
10948;BME280;5526;42.070;24.752;2022-08-19T11:51:45;98386.56;;;39.32;21.99
10948;BME280;5526;42.070;24.752;2022-08-19T11:54:14;98384.59;;;39.60;21.21
10948;BME280;5526;42.070;24.752;2022-08-19T11:56:42;98379.69;;;39.55;21.29
10948;BME280;5526;42.070;24.752;2022-08-19T11:59:11;98379.50;;;39.76;21.09
10948;BME280;5526;42.070;24.752;2022-08-19T12:01:38;98378.22;;;39.95;21.01
10948;BME280;5526;42.070;24.752;2022-08-19T12:04:07;98371.66;;;39.93;20.95
10948;BME280;5526;42.070;24.752;2022-08-19T12:06:38;98371.97;;;39.86;20.62
10948;BME280;5526;42.070;24.752;2022-08-19T12:09:07;98366.00;;;39.96;20.62
10948;BME280;5526;42.070;24.752;2022-08-19T12:11:35;98363.63;;;40.13;21.04
10948;BME280;5526;42.070;24.752;2022-08-19T12:14:02;98362.16;;;39.94;20.87
10948;BME280;5526;42.070;24.752;2022-08-19T12:16:31;98351.75;;;39.89;20.57
10948;BME280;5526;42.070;24.752;2022-08-19T12:18:59;98362.16;;;39.94;20.74
10948;BME280;5526;42.070;24.752;2022-08-19T12:21:29;98358.50;;;39.88;20.56
10948;BME280;5526;42.070;24.752;2022-08-19T12:23:59;98350.25;;;39.88;20.67
10948;BME280;5526;42.070;24.752;2022-08-19T12:26:29;98350.88;;;39.83;20.75
10948;BME280;5526;42.070;24.752;2022-08-19T12:28:56;98349.66;;;39.75;20.44
10948;BME280;5526;42.070;24.752;2022-08-19T12:31:24;98351.38;;;40.14;20.60
10948;BME280;5526;42.070;24.752;2022-08-19T12:33:52;98349.69;;;40.07;20.68
10948;BME280;5526;42.070;24.752;2022-08-19T12:36:19;98340.19;;;39.58;21.00
10948;BME280;5526;42.070;24.752;2022-08-19T12:38:47;98341.97;;;39.88;20.71
10948;BME280;5526;42.070;24.752;2022-08-19T12:41:16;98344.31;;;40.22;20.59
10948;BME280;5526;42.070;24.752;2022-08-19T12:43:44;98345.75;;;40.41;20.25
10948;BME280;5526;42.070;24.752;2022-08-19T12:46:11;98333.16;;;40.40;20.14
10948;BME280;5526;42.070;24.752;2022-08-19T12:48:40;98341.28;;;40.43;20.50
10948;BME280;5526;42.070;24.752;2022-08-19T12:51:10;98339.56;;;40.22;20.68
10948;BME280;5526;42.070;24.752;2022-08-19T12:53:38;98338.97;;;40.09;20.96
10948;BME280;5526;42.070;24.752;2022-08-19T12:56:05;98340.94;;;39.76;21.14
10948;BME280;5526;42.070;24.752;2022-08-19T12:58:34;98337.84;;;39.83;21.20
10948;BME280;5526;42.070;24.752;2022-08-19T13:01:06;98333.47;;;39.59;21.29
10948;BME280;5526;42.070;24.752;2022-08-19T13:03:33;98327.47;;;39.69;21.15
10948;BME280;5526;42.070;24.752;2022-08-19T13:06:00;98329.47;;;39.51;21.10
10948;BME280;5526;42.070;24.752;2022-08-19T13:08:27;98326.09;;;39.65;21.15